Hayden, CO (81639)

05:10 PM MDT am 01. Juli 2015 (GMT -0600)
Yampa Valley | | Change Station
CLOSE
Current Station
Flughafen
Location: Hayden,
Höhe: 6601 ft
Wetterstationen in der Umgebung

Höhe 6601 ft 40.48 °N, 107.22 °W | Updated 15 minutes ago

Clear
Heiter
82 °F
gefühlte 82 °F
N
4
Wind Wechselnd Wind aus West

Heute
Max. -- | schwach -- °F
--% Regenrisiko
Gestern
Max. -- | schwach -- °F
Precip. -- inch
5:42 AM 8:43 PM
Vollmond, 100% visible
Druck 30.19 inch
Sichtweite 10.0 Meilen
Wolken Heiter
Taupunkt 45 °F
Feuchtigkeit 26%
Regen 0.00 inch
Schneehöhe Nicht verfügbar..
UV 6 von 12
Pollen 4.90 von 12
Luftqualität Nicht verfügbar..
Flu Activity Nicht verfügbar..
METAR KHDN 012255Z AUTO 26003KT 10SM CLR 28/07 A3019 RMK AO1

More Conditions Fewer Conditions

Druck 30.19 inch
Sichtweite 10.0 Meilen
Wolken Heiter
Taupunkt 45 °F
Feuchtigkeit 26%
Regen 0.00 inch
Schneehöhe Nicht verfügbar..
UV 6 von 12
Pollen 4.90 von 12
Luftqualität Nicht verfügbar..
Flu Activity Nicht verfügbar..
METAR KHDN 012255Z AUTO 26003KT 10SM CLR 28/07 A3019 RMK AO1

More Conditions Fewer Conditions

10-Day Weather Forecast

×

Almanac

Astronomie

Jul. 01, 2015 Aufgang Untergang
Genaue Zeit
Bürgerliche Dämmerung
Nautische Dämmerung
Astronomische Dämmerung
Mond
Länge des sichtbaren Lichts
Tageslänge
Tomorrow will be .
, % of the Moon is Illuminated

Heutige Rekorde

State Highs State Lows

Community

WunderPhotos

Upload Photos

1,834,335 Fotos hochgeladen!

WunderBlogs® & News

Nearby

Luftqualität

  Luftqualität LQ Index Schadstoff
Not available.

Schneehöhe

Station Depth Höhe

Erdbebenaktivität

Stadt Distance Mag. Time & Date
Minimum magnitude displayed is 2.5.

küstennahe Wassertemperaturen

Ort Temperatur

Stations

Wetterstationen in der Umgebung

Stationsstandort Temp. Windchill Taupunkt Feuchtigkeit Wind Precip. Höhe Aktualisiert Art